Time;durP1;ratioP1;P1;durP2;ratioP2;P2;SDS_P1;SDS_P2;PMS_P1;PMS_P2;Temp;Humidity;BMP_temperature;BMP_pressure;BME280_temperature;BME280_humidity;BME280_pressure;Samples;Min_cycle;Max_cycle;Signal;HPM_P1;HPM_P2
2022/08/15 00:00:45;;;;;;;1.75;1.65;;;;;;;;;;4992979;28;20113;-73
2022/08/15 00:03:24;;;;;;;2.15;1.95;;;;;;;;;;4994622;28;20054;-73
2022/08/15 00:05:51;;;;;;;1.60;1.50;;;;;;;;;;4993807;28;20434;-72
2022/08/15 00:08:17;;;;;;;2.53;1.70;;;;;;;;;;4994401;28;20018;-73
2022/08/15 00:10:44;;;;;;;1.67;1.50;;;;;;;;;;4991856;28;20084;-72
2022/08/15 00:13:12;;;;;;;1.60;1.50;;;;;;;;;;4994623;28;20041;-73
2022/08/15 00:15:39;;;;;;;1.50;1.40;;;;;;;;;;4983342;28;20485;-73
2022/08/15 00:18:05;;;;;;;1.92;1.45;;;;;;;;;;4998178;28;20074;-74
2022/08/15 00:20:33;;;;;;;2.63;1.60;;;;;;;;;;5000463;28;20030;-73
2022/08/15 00:22:59;;;;;;;2.45;1.50;;;;;;;;;;4998475;28;20101;-73
2022/08/15 00:25:25;;;;;;;2.00;1.80;;;;;;;;;;5000956;28;20073;-73
2022/08/15 00:27:51;;;;;;;3.75;1.48;;;;;;;;;;4996509;28;20100;-73
2022/08/15 00:30:17;;;;;;;2.47;1.73;;;;;;;;;;5001194;28;20022;-73
2022/08/15 00:32:53;;;;;;;2.15;1.70;;;;;;;;;;4998997;28;20038;-73
2022/08/15 00:35:39;;;;;;;2.30;1.60;;;;;;;;;;4999147;28;20533;-73
2022/08/15 00:38:13;;;;;;;2.78;1.88;;;;;;;;;;4998940;28;20022;-75
2022/08/15 00:43:33;;;;;;;1.98;1.73;;;;;;;;;;4997755;28;20097;-73
2022/08/15 00:45:59;;;;;;;1.90;1.55;;;;;;;;;;4997996;28;20022;-73
2022/08/15 00:48:44;;;;;;;2.70;1.60;;;;;;;;;;4995169;28;20105;-73
2022/08/15 00:51:19;;;;;;;2.05;1.50;;;;;;;;;;5003477;28;20018;-73
2022/08/15 00:54:05;;;;;;;2.50;1.88;;;;;;;;;;4998598;28;20023;-75
2022/08/15 00:56:34;;;;;;;4.82;1.90;;;;;;;;;;4983233;28;20045;-74
2022/08/15 00:59:01;;;;;;;2.08;1.70;;;;;;;;;;4995146;28;20034;-73
2022/08/15 01:01:28;;;;;;;1.92;1.73;;;;;;;;;;4998954;28;20113;-73
2022/08/15 01:03:54;;;;;;;2.55;1.90;;;;;;;;;;4993388;28;20414;-73
2022/08/15 01:06:22;;;;;;;2.22;2.03;;;;;;;;;;4995102;28;20033;-74
2022/08/15 01:08:48;;;;;;;2.78;2.33;;;;;;;;;;4990690;28;20033;-73
2022/08/15 01:11:21;;;;;;;2.53;2.20;;;;;;;;;;4997796;28;20092;-73
2022/08/15 01:13:47;;;;;;;2.53;2.33;;;;;;;;;;4999764;28;20076;-73
2022/08/15 01:16:14;;;;;;;3.30;2.50;;;;;;;;;;4997410;28;20023;-73
2022/08/15 01:18:40;;;;;;;3.05;2.75;;;;;;;;;;5000349;28;20121;-73
2022/08/15 01:21:20;;;;;;;3.22;2.90;;;;;;;;;;4995334;28;20483;-73
2022/08/15 01:24:13;;;;;;;3.00;2.67;;;;;;;;;;4997858;28;20069;-73
2022/08/15 01:26:40;;;;;;;3.45;3.03;;;;;;;;;;4998579;28;20029;-74
2022/08/15 01:29:06;;;;;;;4.50;2.95;;;;;;;;;;4987532;28;20059;-74
2022/08/15 01:31:32;;;;;;;3.97;3.30;;;;;;;;;;4997574;28;20027;-73
2022/08/15 01:33:59;;;;;;;4.00;3.60;;;;;;;;;;4999852;28;20026;-73
2022/08/15 01:36:27;;;;;;;3.83;3.42;;;;;;;;;;4997534;28;20077;-75
2022/08/15 01:39:08;;;;;;;4.22;3.83;;;;;;;;;;5004798;28;20038;-74
2022/08/15 01:41:53;;;;;;;7.18;4.25;;;;;;;;;;4999641;28;20402;-73
2022/08/15 01:44:22;;;;;;;4.85;4.45;;;;;;;;;;4998782;28;20030;-73
2022/08/15 01:46:56;;;;;;;6.35;4.20;;;;;;;;;;5000333;28;20387;-73
2022/08/15 01:49:32;;;;;;;6.00;5.10;;;;;;;;;;4996811;28;20109;-73
2022/08/15 01:51:59;;;;;;;6.70;5.30;;;;;;;;;;5002060;28;20018;-73
2022/08/15 01:54:26;;;;;;;7.05;5.30;;;;;;;;;;4999224;28;20268;-74
2022/08/15 01:56:53;;;;;;;6.88;6.18;;;;;;;;;;4997383;28;20389;-73
2022/08/15 01:59:21;;;;;;;7.95;6.35;;;;;;;;;;4996301;28;20045;-74
2022/08/15 02:01:56;;;;;;;7.53;6.25;;;;;;;;;;5000275;28;20032;-74
2022/08/15 02:04:26;;;;;;;6.55;5.60;;;;;;;;;;4997597;28;20029;-73
2022/08/15 02:06:53;;;;;;;8.00;5.75;;;;;;;;;;4998606;28;20474;-73
2022/08/15 02:09:20;;;;;;;6.03;5.43;;;;;;;;;;4996213;28;20034;-73
2022/08/15 02:11:46;;;;;;;6.60;6.00;;;;;;;;;;5002778;28;20101;-75
2022/08/15 02:14:13;;;;;;;6.18;5.47;;;;;;;;;;4999759;28;20150;-73
2022/08/15 02:16:40;;;;;;;6.05;5.30;;;;;;;;;;4999100;28;20022;-73
2022/08/15 02:19:10;;;;;;;5.60;5.00;;;;;;;;;;5001694;28;20132;-73
2022/08/15 02:21:37;;;;;;;6.15;5.00;;;;;;;;;;5000455;28;20507;-74
2022/08/15 02:24:04;;;;;;;5.45;4.95;;;;;;;;;;5002058;28;20084;-73
2022/08/15 02:26:30;;;;;;;5.30;4.80;;;;;;;;;;4994802;28;20462;-73
2022/08/15 02:28:57;;;;;;;7.00;5.15;;;;;;;;;;5000316;28;20388;-74
2022/08/15 02:31:26;;;;;;;4.60;4.20;;;;;;;;;;5000290;28;20376;-74
2022/08/15 02:33:55;;;;;;;7.80;4.38;;;;;;;;;;4999601;28;20487;-73
2022/08/15 02:36:22;;;;;;;5.50;5.00;;;;;;;;;;4996856;28;20054;-73
2022/08/15 02:38:49;;;;;;;5.43;4.90;;;;;;;;;;4996099;28;20117;-74
2022/08/15 02:41:22;;;;;;;4.30;3.90;;;;;;;;;;4998097;28;20255;-73
2022/08/15 02:43:48;;;;;;;4.85;3.75;;;;;;;;;;4995367;28;20042;-73
2022/08/15 02:46:16;;;;;;;5.95;3.83;;;;;;;;;;5002047;28;20135;-73
2022/08/15 02:48:43;;;;;;;4.05;3.40;;;;;;;;;;4995843;28;20034;-74
2022/08/15 02:51:10;;;;;;;4.00;3.70;;;;;;;;;;4998914;28;20030;-73
2022/08/15 02:53:36;;;;;;;3.85;3.45;;;;;;;;;;4994439;28;20065;-73
2022/08/15 02:56:06;;;;;;;4.25;3.67;;;;;;;;;;4994204;28;20029;-73
2022/08/15 02:58:35;;;;;;;5.22;3.65;;;;;;;;;;4993672;28;20034;-76
2022/08/15 03:01:04;;;;;;;5.45;3.83;;;;;;;;;;4993639;28;20026;-73
2022/08/15 03:03:30;;;;;;;8.25;4.40;;;;;;;;;;4996405;28;20022;-74
2022/08/15 03:05:57;;;;;;;4.80;4.05;;;;;;;;;;4992022;28;20027;-75
2022/08/15 03:08:24;;;;;;;5.10;3.70;;;;;;;;;;4995142;28;20530;-74
2022/08/15 03:10:51;;;;;;;4.55;3.03;;;;;;;;;;4993246;28;20988;-73
2022/08/15 03:13:18;;;;;;;3.72;2.92;;;;;;;;;;4994726;28;20037;-73
2022/08/15 03:15:52;;;;;;;4.30;3.47;;;;;;;;;;4991912;28;20398;-75
2022/08/15 03:18:19;;;;;;;4.05;3.30;;;;;;;;;;4995542;28;20109;-74
2022/08/15 03:20:46;;;;;;;5.07;3.28;;;;;;;;;;4990262;28;20029;-73
2022/08/15 03:23:12;;;;;;;3.65;3.17;;;;;;;;;;4991203;28;20403;-73
2022/08/15 03:25:43;;;;;;;4.22;3.00;;;;;;;;;;4993480;28;20033;-73
2022/08/15 03:28:09;;;;;;;5.47;3.60;;;;;;;;;;4988966;28;20570;-76
2022/08/15 03:30:37;;;;;;;3.35;2.97;;;;;;;;;;4993961;28;20053;-73
2022/08/15 03:33:04;;;;;;;4.53;3.28;;;;;;;;;;4991451;28;20014;-74
2022/08/15 03:35:31;;;;;;;4.22;3.75;;;;;;;;;;4992756;28;20493;-75
2022/08/15 03:37:59;;;;;;;5.05;3.80;;;;;;;;;;4990096;28;20037;-73
2022/08/15 03:40:25;;;;;;;6.45;4.60;;;;;;;;;;4993511;28;20185;-73
2022/08/15 03:42:53;;;;;;;5.47;3.95;;;;;;;;;;4992565;28;20022;-76
2022/08/15 03:45:20;;;;;;;5.32;4.05;;;;;;;;;;4992193;28;20497;-74
2022/08/15 03:47:47;;;;;;;5.00;4.50;;;;;;;;;;4994188;28;20117;-73
2022/08/15 03:50:14;;;;;;;5.68;4.60;;;;;;;;;;4991587;28;20026;-74
2022/08/15 03:52:51;;;;;;;4.80;4.38;;;;;;;;;;4990926;28;20355;-75
2022/08/15 03:55:18;;;;;;;5.80;4.40;;;;;;;;;;4990413;28;20109;-75
2022/08/15 03:57:44;;;;;;;5.28;4.65;;;;;;;;;;4991883;28;20026;-73
2022/08/15 04:00:11;;;;;;;7.53;6.18;;;;;;;;;;4992133;28;20430;-74
2022/08/15 04:02:37;;;;;;;7.75;5.93;;;;;;;;;;4988676;28;20034;-75
2022/08/15 04:05:04;;;;;;;6.82;5.68;;;;;;;;;;4995319;28;20042;-73
2022/08/15 04:07:33;;;;;;;5.72;4.47;;;;;;;;;;4988238;28;20386;-73
2022/08/15 04:09:59;;;;;;;5.18;4.65;;;;;;;;;;4992576;28;20022;-73
2022/08/15 04:12:35;;;;;;;4.80;4.30;;;;;;;;;;4988961;28;20088;-73
2022/08/15 04:15:05;;;;;;;4.82;4.28;;;;;;;;;;4990808;28;20096;-73
2022/08/15 04:17:31;;;;;;;5.10;4.22;;;;;;;;;;4989558;28;20037;-74
2022/08/15 04:19:57;;;;;;;5.45;4.18;;;;;;;;;;4991175;28;20038;-73
2022/08/15 04:22:35;;;;;;;4.60;4.00;;;;;;;;;;4988991;28;20364;-74
2022/08/15 04:25:03;;;;;;;4.80;4.15;;;;;;;;;;4992098;28;20046;-74
2022/08/15 04:27:30;;;;;;;5.55;4.75;;;;;;;;;;4980326;28;20040;-73
2022/08/15 04:29:56;;;;;;;4.72;3.70;;;;;;;;;;4990252;28;20851;-74
2022/08/15 04:32:25;;;;;;;4.22;3.42;;;;;;;;;;4998384;28;20210;-73
2022/08/15 04:34:51;;;;;;;4.35;3.28;;;;;;;;;;4988925;28;20022;-74
2022/08/15 04:37:17;;;;;;;8.32;4.70;;;;;;;;;;5000174;28;20022;-74
2022/08/15 04:39:43;;;;;;;3.92;3.40;;;;;;;;;;4998340;28;20044;-73
2022/08/15 04:42:10;;;;;;;3.50;2.83;;;;;;;;;;4994535;28;20309;-72
2022/08/15 04:44:39;;;;;;;4.20;3.33;;;;;;;;;;4994966;28;20061;-72
2022/08/15 04:47:05;;;;;;;3.03;2.72;;;;;;;;;;4990903;28;20034;-72
2022/08/15 04:49:32;;;;;;;4.20;2.75;;;;;;;;;;4991177;28;20030;-73
2022/08/15 04:52:08;;;;;;;3.83;2.60;;;;;;;;;;4988896;28;20058;-72
2022/08/15 04:54:35;;;;;;;3.80;2.90;;;;;;;;;;4991261;28;20030;-72
2022/08/15 04:57:02;;;;;;;4.15;3.00;;;;;;;;;;4990191;28;20033;-73
2022/08/15 04:59:28;;;;;;;4.40;3.05;;;;;;;;;;4989676;28;20033;-72
2022/08/15 05:01:54;;;;;;;3.40;3.10;;;;;;;;;;4989815;28;20033;-72
2022/08/15 05:04:21;;;;;;;3.53;3.20;;;;;;;;;;4989197;28;20026;-73
2022/08/15 05:06:47;;;;;;;3.65;3.25;;;;;;;;;;4992580;28;20613;-73
2022/08/15 05:09:13;;;;;;;4.03;3.15;;;;;;;;;;4987085;28;20030;-73
2022/08/15 05:11:39;;;;;;;4.75;3.17;;;;;;;;;;4992597;28;20026;-72
2022/08/15 05:14:05;;;;;;;3.92;3.13;;;;;;;;;;4988425;28;20022;-73
2022/08/15 05:16:35;;;;;;;3.53;3.17;;;;;;;;;;4990327;28;20022;-72
2022/08/15 05:19:01;;;;;;;4.05;3.40;;;;;;;;;;4988232;28;20116;-73
2022/08/15 05:21:28;;;;;;;7.93;3.20;;;;;;;;;;4991557;28;20032;-73
2022/08/15 05:23:55;;;;;;;5.43;3.63;;;;;;;;;;4992141;28;20032;-72
2022/08/15 05:26:22;;;;;;;3.75;3.33;;;;;;;;;;4993365;28;20026;-73
2022/08/15 05:28:48;;;;;;;6.45;4.00;;;;;;;;;;4992462;28;20490;-73
2022/08/15 05:31:14;;;;;;;4.93;3.60;;;;;;;;;;4991384;28;20074;-72
2022/08/15 05:33:45;;;;;;;3.90;3.50;;;;;;;;;;4991572;28;20059;-73
2022/08/15 05:36:12;;;;;;;3.80;3.22;;;;;;;;;;4992066;28;20036;-73
2022/08/15 05:38:41;;;;;;;3.40;3.10;;;;;;;;;;4995537;28;20109;-73
2022/08/15 05:41:31;;;;;;;5.38;3.47;;;;;;;;;;4996149;28;20048;-74
2022/08/15 05:43:57;;;;;;;4.25;3.67;;;;;;;;;;4981646;28;20042;-73
2022/08/15 05:46:39;;;;;;;5.97;3.53;;;;;;;;;;4996680;28;20027;-72
2022/08/15 05:49:17;;;;;;;5.82;3.72;;;;;;;;;;4988521;28;20034;-73
2022/08/15 05:51:48;;;;;;;4.10;3.53;;;;;;;;;;4999673;28;20014;-73
2022/08/15 05:54:33;;;;;;;4.35;3.65;;;;;;;;;;4998683;28;20037;-73
2022/08/15 05:57:13;;;;;;;4.13;3.47;;;;;;;;;;4997652;28;20030;-72
2022/08/15 05:59:41;;;;;;;4.85;4.15;;;;;;;;;;4996176;28;20042;-74
2022/08/15 06:02:11;;;;;;;4.10;3.40;;;;;;;;;;4997979;28;20030;-74
2022/08/15 06:04:55;;;;;;;4.65;3.80;;;;;;;;;;4997736;28;20102;-74
2022/08/15 06:07:22;;;;;;;3.75;3.40;;;;;;;;;;4997267;28;20037;-74
2022/08/15 06:09:55;;;;;;;4.13;3.72;;;;;;;;;;4996291;28;20482;-74
2022/08/15 06:12:34;;;;;;;5.97;4.20;;;;;;;;;;4998589;28;20084;-74
2022/08/15 06:15:04;;;;;;;5.43;3.63;;;;;;;;;;4997628;28;20014;-72
2022/08/15 06:17:41;;;;;;;5.65;5.05;;;;;;;;;;4998114;28;20033;-75
2022/08/15 06:20:10;;;;;;;5.22;4.18;;;;;;;;;;4996731;28;20050;-74
2022/08/15 06:22:42;;;;;;;4.10;3.38;;;;;;;;;;5001304;28;20029;-74
2022/08/15 06:25:27;;;;;;;5.82;3.58;;;;;;;;;;4997637;28;20081;-74
2022/08/15 06:27:53;;;;;;;5.63;4.00;;;;;;;;;;4998999;28;20033;-74
2022/08/15 06:30:26;;;;;;;4.30;3.90;;;;;;;;;;4997704;28;20022;-74
2022/08/15 06:33:01;;;;;;;3.90;3.50;;;;;;;;;;4998130;28;20041;-74
2022/08/15 06:35:53;;;;;;;4.13;3.72;;;;;;;;;;4999889;28;20166;-74
2022/08/15 06:38:25;;;;;;;5.07;3.85;;;;;;;;;;4997254;28;20626;-74
2022/08/15 06:40:58;;;;;;;5.57;3.50;;;;;;;;;;5002403;28;20025;-74
2022/08/15 06:43:24;;;;;;;5.05;3.55;;;;;;;;;;4994959;28;20462;-74
2022/08/15 06:45:52;;;;;;;4.30;3.60;;;;;;;;;;5000164;28;20049;-74
2022/08/15 06:48:23;;;;;;;4.03;3.63;;;;;;;;;;4992713;28;20030;-74
2022/08/15 06:50:54;;;;;;;3.65;3.10;;;;;;;;;;5002193;28;20961;-74
2022/08/15 06:53:23;;;;;;;6.57;3.65;;;;;;;;;;4995207;28;20034;-74
2022/08/15 06:55:51;;;;;;;3.42;3.10;;;;;;;;;;5001087;28;20061;-75
2022/08/15 06:58:20;;;;;;;4.53;3.20;;;;;;;;;;4998810;28;20026;-76
2022/08/15 07:01:00;;;;;;;2.90;2.70;;;;;;;;;;4997845;28;20502;-74
2022/08/15 07:03:30;;;;;;;4.05;2.92;;;;;;;;;;4997725;28;20498;-74
2022/08/15 07:05:57;;;;;;;4.80;3.07;;;;;;;;;;5002287;28;20034;-75
2022/08/15 07:08:33;;;;;;;5.05;2.80;;;;;;;;;;4997043;28;20077;-72
2022/08/15 07:11:20;;;;;;;3.03;2.80;;;;;;;;;;4996406;28;20491;-74
2022/08/15 07:13:46;;;;;;;5.30;2.92;;;;;;;;;;5002051;28;20022;-74
2022/08/15 07:16:33;;;;;;;4.25;2.90;;;;;;;;;;4997768;28;20442;-74
2022/08/15 07:19:02;;;;;;;4.75;3.10;;;;;;;;;;4990096;28;20045;-77
2022/08/15 07:21:29;;;;;;;3.05;2.67;;;;;;;;;;4997065;28;20026;-72
2022/08/15 07:23:59;;;;;;;4.38;2.67;;;;;;;;;;5000020;28;20019;-74
2022/08/15 07:26:26;;;;;;;3.63;2.70;;;;;;;;;;4995342;28;20026;-75
2022/08/15 07:28:52;;;;;;;3.85;2.55;;;;;;;;;;4994149;28;20088;-74
2022/08/15 07:31:20;;;;;;;4.80;2.88;;;;;;;;;;4981815;28;20074;-79
2022/08/15 07:33:48;;;;;;;3.00;2.70;;;;;;;;;;4999238;28;20463;-72
2022/08/15 07:36:18;;;;;;;2.50;2.30;;;;;;;;;;4998141;28;20028;-73
2022/08/15 07:38:45;;;;;;;3.42;2.63;;;;;;;;;;4997427;28;20227;-72
2022/08/15 07:41:30;;;;;;;4.68;3.10;;;;;;;;;;4995567;28;20050;-72
2022/08/15 07:44:01;;;;;;;17.55;4.95;;;;;;;;;;4997493;28;20101;-74
2022/08/15 07:46:42;;;;;;;4.38;3.08;;;;;;;;;;4995811;28;20022;-74
2022/08/15 07:49:20;;;;;;;3.25;2.95;;;;;;;;;;4997397;28;20378;-73
2022/08/15 07:52:05;;;;;;;4.53;3.25;;;;;;;;;;4989901;28;20108;-74
2022/08/15 07:54:32;;;;;;;3.35;3.05;;;;;;;;;;4993507;28;20105;-73
2022/08/15 07:57:00;;;;;;;4.13;3.45;;;;;;;;;;4997774;28;20314;-73
2022/08/15 07:59:28;;;;;;;3.25;2.97;;;;;;;;;;4996822;28;20080;-73
2022/08/15 08:02:03;;;;;;;3.78;3.35;;;;;;;;;;4999370;28;20042;-73
2022/08/15 08:04:30;;;;;;;5.47;3.38;;;;;;;;;;4990961;28;20105;-73
2022/08/15 08:06:58;;;;;;;4.18;3.10;;;;;;;;;;4997885;28;20037;-72
2022/08/15 08:09:34;;;;;;;3.83;3.53;;;;;;;;;;4997867;28;20101;-73
2022/08/15 08:12:05;;;;;;;3.30;2.83;;;;;;;;;;4994251;28;20029;-73
2022/08/15 08:14:35;;;;;;;3.85;3.20;;;;;;;;;;4998243;28;20081;-73
2022/08/15 08:17:26;;;;;;;3.28;2.97;;;;;;;;;;4995927;28;20029;-73
2022/08/15 08:20:03;;;;;;;6.85;3.55;;;;;;;;;;4998283;28;20058;-73
2022/08/15 08:22:44;;;;;;;4.32;3.40;;;;;;;;;;4996187;28;20018;-73
2022/08/15 08:25:10;;;;;;;;;;;;;;;;;;4993942;28;20080;-73
2022/08/15 08:27:40;;;;;;;3.55;3.10;;;;;;;;;;4993380;28;19937;-73
2022/08/15 08:30:12;;;;;;;3.20;2.90;;;;;;;;;;4992662;28;20025;-73
2022/08/15 08:32:42;;;;;;;3.25;2.70;;;;;;;;;;4993737;28;20026;-74
2022/08/15 08:35:32;;;;;;;4.63;3.00;;;;;;;;;;4990298;28;20117;-73
2022/08/15 08:38:07;;;;;;;3.85;3.30;;;;;;;;;;4988288;28;20353;-73
2022/08/15 08:43:33;;;;;;;6.43;3.20;;;;;;;;;;4991625;28;20129;-75
2022/08/15 08:46:20;;;;;;;3.20;2.90;;;;;;;;;;4987025;28;20649;-75
2022/08/15 08:48:47;;;;;;;4.00;3.05;;;;;;;;;;4990461;28;20022;-74
2022/08/15 08:51:35;;;;;;;4.07;3.08;;;;;;;;;;4996401;28;20033;-74
2022/08/15 08:54:16;;;;;;;4.25;2.97;;;;;;;;;;4990526;28;20026;-75
2022/08/15 08:56:51;;;;;;;4.63;3.00;;;;;;;;;;4993302;28;20104;-75
2022/08/15 08:59:46;;;;;;;3.60;2.70;;;;;;;;;;4993246;28;20153;-75
2022/08/15 09:02:25;;;;;;;3.78;2.90;;;;;;;;;;4970136;28;20130;-75
2022/08/15 09:04:56;;;;;;;2.72;2.42;;;;;;;;;;4988860;28;20034;-75
2022/08/15 09:07:28;;;;;;;5.53;2.90;;;;;;;;;;4993250;28;20135;-74
2022/08/15 09:09:55;;;;;;;3.53;2.78;;;;;;;;;;4993847;28;20022;-74
2022/08/15 09:15:16;;;;;;;4.18;2.78;;;;;;;;;;4988878;28;20061;-74
2022/08/15 09:17:44;;;;;;;2.90;2.65;;;;;;;;;;4997352;28;20037;-74
2022/08/15 09:20:12;;;;;;;3.08;2.60;;;;;;;;;;4994450;28;20060;-75
2022/08/15 09:22:39;;;;;;;5.13;2.90;;;;;;;;;;5000199;28;20109;-74
2022/08/15 09:25:06;;;;;;;4.35;2.60;;;;;;;;;;4996833;28;20084;-74
2022/08/15 09:27:53;;;;;;;3.10;2.80;;;;;;;;;;4995802;28;20028;-75
2022/08/15 09:30:19;;;;;;;3.80;2.58;;;;;;;;;;4987696;28;20030;-76
2022/08/15 09:33:03;;;;;;;3.60;2.72;;;;;;;;;;4982110;28;20028;-74
2022/08/15 09:35:53;;;;;;;6.13;2.90;;;;;;;;;;4994173;28;20034;-75
2022/08/15 09:38:26;;;;;;;3.20;2.85;;;;;;;;;;4985546;28;20038;-74
2022/08/15 09:41:11;;;;;;;3.10;2.50;;;;;;;;;;4993981;28;20037;-74
2022/08/15 09:43:43;;;;;;;3.05;2.63;;;;;;;;;;4993523;28;20056;-74
2022/08/15 09:46:28;;;;;;;4.38;2.75;;;;;;;;;;4977773;28;20530;-74
2022/08/15 09:49:13;;;;;;;4.22;2.60;;;;;;;;;;4991419;28;20026;-74
2022/08/15 09:51:45;;;;;;;2.67;2.47;;;;;;;;;;4991363;28;20069;-75
2022/08/15 09:54:25;;;;;;;2.83;2.50;;;;;;;;;;4995551;28;20084;-74
2022/08/15 09:56:52;;;;;;;2.63;2.40;;;;;;;;;;4995795;28;20025;-75
2022/08/15 09:59:20;;;;;;;5.25;2.95;;;;;;;;;;4993874;28;20044;-75
2022/08/15 10:02:13;;;;;;;3.08;2.47;;;;;;;;;;4983127;28;20037;-74
2022/08/15 10:04:45;;;;;;;2.40;2.20;;;;;;;;;;4991456;28;20040;-75
2022/08/15 10:07:11;;;;;;;3.55;2.40;;;;;;;;;;4984500;28;20092;-74
2022/08/15 10:09:41;;;;;;;2.63;2.42;;;;;;;;;;4992857;28;20022;-74
2022/08/15 10:12:07;;;;;;;3.35;2.22;;;;;;;;;;4994792;28;20049;-75
2022/08/15 10:14:48;;;;;;;3.70;2.30;;;;;;;;;;4991977;28;20114;-75
2022/08/15 10:17:37;;;;;;;2.88;2.58;;;;;;;;;;4993892;28;20062;-73
2022/08/15 10:20:15;;;;;;;4.18;2.58;;;;;;;;;;4994493;28;20045;-73
2022/08/15 10:22:41;;;;;;;3.55;2.42;;;;;;;;;;4994752;28;20030;-73
2022/08/15 10:25:23;;;;;;;3.38;2.50;;;;;;;;;;4996662;28;20017;-73
2022/08/15 10:27:57;;;;;;;4.82;2.45;;;;;;;;;;4995484;28;20540;-73
2022/08/15 10:30:25;;;;;;;3.50;2.75;;;;;;;;;;4995848;28;20503;-73
2022/08/15 10:32:53;;;;;;;2.60;2.40;;;;;;;;;;4996897;28;20021;-73
2022/08/15 10:35:28;;;;;;;3.50;2.40;;;;;;;;;;4998514;28;20033;-73
2022/08/15 10:37:57;;;;;;;3.17;2.20;;;;;;;;;;4998158;28;20026;-73
2022/08/15 10:40:32;;;;;;;2.83;2.47;;;;;;;;;;4991808;28;20464;-74
2022/08/15 10:43:11;;;;;;;3.53;2.13;;;;;;;;;;4993473;28;20491;-73
2022/08/15 10:45:59;;;;;;;2.53;2.00;;;;;;;;;;4992483;28;20022;-80
2022/08/15 10:48:32;;;;;;;2.80;2.30;;;;;;;;;;4994182;28;20018;-72
2022/08/15 10:51:03;;;;;;;3.00;2.22;;;;;;;;;;4992847;28;20018;-76
2022/08/15 10:53:29;;;;;;;;;;;;;;;;;;4998418;28;20022;-76
2022/08/15 10:56:31;;;;;;;2.53;1.92;;;;;;;;;;4990245;28;20478;-74
2022/08/15 10:59:02;;;;;;;2.67;2.00;;;;;;;;;;4898948;29;20044;-74
2022/08/15 11:01:32;;;;;;;2.45;2.10;;;;;;;;;;4981658;28;20694;-74
2022/08/15 11:04:05;;;;;;;3.22;2.50;;;;;;;;;;4999598;28;20033;-74
2022/08/15 11:06:34;;;;;;;3.13;2.28;;;;;;;;;;4993213;28;20237;-74
2022/08/15 11:09:06;;;;;;;2.92;2.60;;;;;;;;;;4994974;28;20022;-74
2022/08/15 11:11:36;;;;;;;3.22;2.30;;;;;;;;;;4990744;28;20445;-74
2022/08/15 11:14:11;;;;;;;3.75;2.70;;;;;;;;;;4999261;28;20055;-74
2022/08/15 11:16:40;;;;;;;3.53;2.70;;;;;;;;;;4997663;28;20040;-74
2022/08/15 11:19:19;;;;;;;5.60;2.42;;;;;;;;;;4993791;28;20038;-74
2022/08/15 11:21:54;;;;;;;4.53;2.55;;;;;;;;;;4996374;28;20045;-75
2022/08/15 11:24:34;;;;;;;3.15;2.53;;;;;;;;;;4999204;28;20160;-75
2022/08/15 11:27:11;;;;;;;3.25;2.72;;;;;;;;;;4996355;28;20491;-74
2022/08/15 11:29:39;;;;;;;3.67;2.90;;;;;;;;;;4999934;28;20026;-74
2022/08/15 11:32:05;;;;;;;3.15;2.70;;;;;;;;;;5000829;28;20057;-74
2022/08/15 11:34:40;;;;;;;4.80;3.08;;;;;;;;;;4995789;28;20209;-77
2022/08/15 11:37:11;;;;;;;3.30;2.95;;;;;;;;;;4996636;28;20386;-75
2022/08/15 11:39:39;;;;;;;4.60;2.88;;;;;;;;;;4997624;28;20037;-73
2022/08/15 11:42:06;;;;;;;2.70;2.50;;;;;;;;;;4996836;28;20623;-73
2022/08/15 11:44:53;;;;;;;6.88;3.05;;;;;;;;;;4999600;28;20694;-76
2022/08/15 11:47:20;;;;;;;4.75;3.45;;;;;;;;;;4991430;28;20022;-75
2022/08/15 11:49:49;;;;;;;4.25;2.83;;;;;;;;;;4977513;28;20416;-74
2022/08/15 11:52:20;;;;;;;4.30;2.90;;;;;;;;;;4990181;28;20489;-75
2022/08/15 11:54:46;;;;;;;3.50;3.20;;;;;;;;;;4996434;28;20114;-75
2022/08/15 11:57:20;;;;;;;3.88;2.80;;;;;;;;;;4975490;28;20045;-74
2022/08/15 12:00:06;;;;;;;3.42;3.13;;;;;;;;;;4991511;28;20060;-75
2022/08/15 12:02:32;;;;;;;3.00;2.58;;;;;;;;;;4989965;28;20548;-74
2022/08/15 12:05:08;;;;;;;3.33;2.45;;;;;;;;;;4994792;28;20780;-74
2022/08/15 12:07:41;;;;;;;4.55;2.97;;;;;;;;;;4994381;28;20044;-74
2022/08/15 12:10:18;;;;;;;4.78;2.70;;;;;;;;;;4992064;28;20033;-74
2022/08/15 12:12:50;;;;;;;3.92;2.80;;;;;;;;;;4986763;28;20025;-74
2022/08/15 12:15:17;;;;;;;4.93;2.75;;;;;;;;;;4990682;28;20647;-75
2022/08/15 12:18:00;;;;;;;3.08;2.70;;;;;;;;;;4990358;28;20034;-75
2022/08/15 12:20:39;;;;;;;3.80;2.92;;;;;;;;;;4993357;28;20084;-74
2022/08/15 12:23:25;;;;;;;3.33;2.75;;;;;;;;;;4991718;28;20105;-74
2022/08/15 12:25:56;;;;;;;4.22;2.83;;;;;;;;;;4990246;28;20018;-74
2022/08/15 12:28:23;;;;;;;2.70;2.50;;;;;;;;;;4997782;28;20177;-75
2022/08/15 12:30:49;;;;;;;3.20;2.88;;;;;;;;;;4990955;28;20014;-74
2022/08/15 12:33:15;;;;;;;4.43;3.08;;;;;;;;;;4992526;28;20144;-77
2022/08/15 12:35:42;;;;;;;3.42;3.00;;;;;;;;;;4996213;28;20022;-77
2022/08/15 12:38:08;;;;;;;2.50;2.30;;;;;;;;;;4994019;28;20120;-75
2022/08/15 12:40:35;;;;;;;2.92;2.30;;;;;;;;;;4988932;28;20570;-75
2022/08/15 12:43:01;;;;;;;3.55;2.60;;;;;;;;;;4988091;28;20437;-74
2022/08/15 12:45:27;;;;;;;3.55;2.47;;;;;;;;;;4996240;28;20520;-75
2022/08/15 12:47:55;;;;;;;2.85;2.45;;;;;;;;;;4991160;28;20451;-75
2022/08/15 12:50:21;;;;;;;3.03;2.55;;;;;;;;;;4990948;28;20033;-75
2022/08/15 12:52:48;;;;;;;3.70;2.60;;;;;;;;;;4988816;28;20167;-75
2022/08/15 12:55:14;;;;;;;2.58;2.28;;;;;;;;;;4991062;28;20026;-75
2022/08/15 12:57:40;;;;;;;2.78;2.22;;;;;;;;;;4988993;28;20109;-76
2022/08/15 13:00:08;;;;;;;2.55;2.33;;;;;;;;;;4989829;28;20553;-74
2022/08/15 13:02:38;;;;;;;4.65;2.53;;;;;;;;;;4990898;28;20018;-75
2022/08/15 13:05:06;;;;;;;2.33;2.13;;;;;;;;;;4988080;28;20085;-75
2022/08/15 13:07:32;;;;;;;4.32;2.60;;;;;;;;;;4987390;28;20117;-75
2022/08/15 13:09:59;;;;;;;4.85;2.47;;;;;;;;;;4990283;28;20029;-74
2022/08/15 13:12:25;;;;;;;2.58;2.25;;;;;;;;;;4989107;28;20090;-75
2022/08/15 13:14:51;;;;;;;5.20;3.10;;;;;;;;;;4991224;28;20038;-75
2022/08/15 13:17:17;;;;;;;5.00;2.80;;;;;;;;;;4996038;28;20072;-75
2022/08/15 13:25:16;;;;;;;4.72;3.33;;;;;;;;;;4991084;28;20498;-74
2022/08/15 13:27:44;;;;;;;4.18;3.38;;;;;;;;;;4989332;28;20018;-75
2022/08/15 13:30:12;;;;;;;3.45;3.15;;;;;;;;;;4990052;28;20186;-75
2022/08/15 13:32:38;;;;;;;3.33;2.88;;;;;;;;;;4990081;28;20463;-75
2022/08/15 13:35:05;;;;;;;3.60;3.30;;;;;;;;;;4992163;28;20372;-75
2022/08/15 13:37:32;;;;;;;3.28;3.08;;;;;;;;;;4989636;28;20033;-75
2022/08/15 13:39:58;;;;;;;3.85;3.15;;;;;;;;;;4987502;28;20109;-75
2022/08/15 13:42:25;;;;;;;3.20;2.90;;;;;;;;;;4991476;28;20105;-75
2022/08/15 13:44:53;;;;;;;3.97;3.22;;;;;;;;;;4986229;28;20026;-75
2022/08/15 13:47:21;;;;;;;3.40;3.10;;;;;;;;;;4995535;28;20108;-75
2022/08/15 13:49:47;;;;;;;9.32;3.50;;;;;;;;;;4991097;28;20033;-77
2022/08/15 13:52:14;;;;;;;8.30;3.75;;;;;;;;;;4994346;28;20034;-78
2022/08/15 13:54:41;;;;;;;7.65;3.40;;;;;;;;;;4998250;28;20054;-75
2022/08/15 13:57:07;;;;;;;3.22;2.90;;;;;;;;;;4990063;28;20022;-76
2022/08/15 13:59:34;;;;;;;3.10;2.80;;;;;;;;;;4991066;28;20048;-78
2022/08/15 14:02:01;;;;;;;4.63;2.80;;;;;;;;;;4994406;28;20158;-76
2022/08/15 14:04:38;;;;;;;3.53;3.00;;;;;;;;;;4983788;28;20054;-77
2022/08/15 14:07:06;;;;;;;4.63;3.00;;;;;;;;;;4986076;28;20101;-76
2022/08/15 14:09:35;;;;;;;3.78;3.13;;;;;;;;;;4986935;28;20033;-77
2022/08/15 14:12:03;;;;;;;5.38;3.13;;;;;;;;;;4991376;28;20111;-76
2022/08/15 14:14:30;;;;;;;4.88;2.80;;;;;;;;;;4987570;28;20019;-77
2022/08/15 14:16:56;;;;;;;5.20;3.25;;;;;;;;;;5010589;28;20018;-76
2022/08/15 14:19:23;;;;;;;3.45;3.15;;;;;;;;;;4999571;28;20046;-76
2022/08/15 14:21:50;;;;;;;4.13;3.72;;;;;;;;;;4990068;28;20193;-76
2022/08/15 14:24:17;;;;;;;3.58;2.90;;;;;;;;;;4983889;28;20188;-77
2022/08/15 14:26:45;;;;;;;3.95;3.40;;;;;;;;;;4994656;28;20053;-77
2022/08/15 14:29:31;;;;;;;3.15;2.85;;;;;;;;;;4996496;28;20490;-77
2022/08/15 14:31:57;;;;;;;4.07;3.50;;;;;;;;;;4996319;28;20030;-77
2022/08/15 14:34:23;;;;;;;4.18;3.50;;;;;;;;;;4992871;28;20026;-76
2022/08/15 14:36:50;;;;;;;3.35;3.03;;;;;;;;;;4990565;28;20049;-76
2022/08/15 14:39:17;;;;;;;3.97;3.28;;;;;;;;;;4992339;28;20030;-77
2022/08/15 14:41:46;;;;;;;3.65;2.83;;;;;;;;;;4987125;28;20060;-77
2022/08/15 14:44:13;;;;;;;3.80;3.38;;;;;;;;;;4989508;28;20046;-77
2022/08/15 14:46:43;;;;;;;3.40;3.10;;;;;;;;;;4989507;28;20609;-77
2022/08/15 14:49:10;;;;;;;4.03;3.63;;;;;;;;;;4990115;28;20104;-77
2022/08/15 14:51:37;;;;;;;3.88;3.47;;;;;;;;;;4994104;28;20041;-77
2022/08/15 14:54:05;;;;;;;4.75;3.78;;;;;;;;;;4995818;28;20630;-77
2022/08/15 14:56:32;;;;;;;5.13;3.75;;;;;;;;;;4986402;28;20390;-77
2022/08/15 14:58:58;;;;;;;3.63;3.33;;;;;;;;;;4998588;28;20037;-77
2022/08/15 15:01:25;;;;;;;3.78;3.40;;;;;;;;;;4997909;28;20364;-77
2022/08/15 15:03:51;;;;;;;4.07;3.38;;;;;;;;;;4998295;28;20029;-77
2022/08/15 15:06:20;;;;;;;4.28;3.70;;;;;;;;;;4994994;28;20053;-77
2022/08/15 15:08:47;;;;;;;4.10;3.38;;;;;;;;;;4997098;28;20374;-77
2022/08/15 15:11:15;;;;;;;4.72;3.47;;;;;;;;;;4997525;28;20524;-77
2022/08/15 15:13:42;;;;;;;4.18;3.70;;;;;;;;;;4996985;28;20022;-76
2022/08/15 15:16:09;;;;;;;3.80;3.38;;;;;;;;;;4978739;28;20129;-75
2022/08/15 15:18:36;;;;;;;3.72;3.30;;;;;;;;;;4998477;28;20483;-76